createdAt,value
2019-05-19T00:01:20.864Z,31.77
2019-05-19T00:06:19.032Z,31.00
2019-05-19T00:08:47.775Z,31.52
2019-05-19T00:11:15.959Z,32.53
2019-05-19T00:13:45.190Z,30.32
2019-05-19T00:16:13.198Z,30.92
2019-05-19T00:18:41.275Z,30.62
2019-05-19T00:21:09.479Z,31.82
2019-05-19T00:23:38.350Z,30.40
2019-05-19T00:26:06.287Z,29.90
2019-05-19T00:28:35.872Z,29.23
2019-05-19T00:33:33.112Z,30.32
2019-05-19T00:36:01.400Z,29.47
2019-05-19T00:38:29.988Z,29.40
2019-05-19T00:40:58.783Z,29.35
2019-05-19T00:43:27.153Z,29.65
2019-05-19T00:45:55.498Z,29.98
2019-05-19T00:48:24.103Z,29.63
2019-05-19T00:53:21.058Z,29.02
2019-05-19T00:55:50.094Z,28.15
2019-05-19T00:58:18.491Z,28.38
2019-05-19T01:00:47.073Z,28.32
2019-05-19T01:03:16.142Z,27.83
2019-05-19T01:05:44.351Z,27.30
2019-05-19T01:08:13.801Z,27.13
2019-05-19T01:13:10.965Z,27.60
2019-05-19T01:15:39.011Z,26.40
2019-05-19T01:18:07.510Z,27.57
2019-05-19T01:20:36.787Z,27.98
2019-05-19T01:23:04.791Z,29.85
2019-05-19T01:25:58.210Z,30.05
2019-05-19T01:28:40.931Z,29.75
2019-05-19T01:31:24.485Z,28.55
2019-05-19T01:34:05.494Z,29.52
2019-05-19T01:36:43.971Z,29.05
2019-05-19T01:39:24.180Z,28.32
2019-05-19T01:42:04.311Z,29.95
2019-05-19T01:44:45.146Z,28.60
2019-05-19T01:47:21.597Z,28.35
2019-05-19T01:50:17.634Z,28.73
2019-05-19T01:52:50.390Z,27.90
2019-05-19T01:55:35.084Z,28.55
2019-05-19T01:58:13.418Z,28.10
2019-05-19T02:00:54.483Z,27.48
2019-05-19T02:03:45.242Z,27.22
2019-05-19T02:06:28.738Z,28.40
2019-05-19T02:09:09.742Z,28.40
2019-05-19T02:11:47.677Z,27.82
2019-05-19T02:14:30.328Z,29.27
2019-05-19T02:17:06.189Z,31.50
2019-05-19T02:19:50.132Z,30.30
2019-05-19T02:22:33.151Z,28.55
2019-05-19T02:25:16.406Z,30.15
2019-05-19T02:27:49.857Z,29.48
2019-05-19T02:30:19.601Z,29.53
2019-05-19T02:32:48.892Z,29.30
2019-05-19T02:35:16.925Z,27.02
2019-05-19T02:37:45.542Z,27.35
2019-05-19T02:42:42.888Z,29.32
2019-05-19T02:45:11.689Z,28.00
2019-05-19T02:47:42.459Z,29.98
2019-05-19T02:50:11.433Z,30.75
2019-05-19T02:52:41.150Z,29.20
2019-05-19T02:57:41.069Z,28.90
2019-05-19T03:00:09.921Z,29.42
2019-05-19T03:02:38.402Z,30.10
2019-05-19T03:05:07.295Z,26.80
2019-05-19T03:10:04.496Z,26.35
2019-05-19T03:12:32.916Z,25.60
2019-05-19T03:15:01.146Z,26.55
2019-05-19T03:17:29.580Z,27.20
2019-05-19T03:19:58.006Z,27.67
2019-05-19T03:22:26.616Z,28.32
2019-05-19T03:24:55.135Z,28.15
2019-05-19T03:27:24.692Z,26.95
2019-05-19T03:29:56.280Z,26.60
2019-05-19T03:35:11.548Z,26.77
2019-05-19T03:37:40.253Z,27.55
2019-05-19T03:40:20.128Z,25.90
2019-05-19T03:42:49.708Z,26.03
2019-05-19T03:45:18.213Z,25.90
2019-05-19T03:47:46.699Z,25.35
2019-05-19T03:50:15.430Z,27.07
2019-05-19T03:55:11.874Z,27.65
2019-05-19T03:57:40.104Z,26.75
2019-05-19T04:00:08.974Z,26.27
2019-05-19T04:02:37.466Z,25.90
2019-05-19T04:07:34.387Z,26.77
2019-05-19T04:10:02.554Z,25.80
2019-05-19T04:14:59.644Z,26.15
2019-05-19T04:17:27.764Z,26.20
2019-05-19T04:19:56.734Z,26.82
2019-05-19T04:22:24.893Z,30.20
2019-05-19T04:24:53.046Z,28.50
2019-05-19T04:27:21.482Z,29.52
2019-05-19T04:29:49.709Z,29.27
2019-05-19T04:34:46.920Z,27.50
2019-05-19T04:37:15.038Z,26.82
2019-05-19T04:39:43.161Z,27.02
2019-05-19T04:42:11.755Z,27.50
2019-05-19T04:44:39.880Z,32.83
2019-05-19T04:47:08.341Z,38.83
2019-05-19T04:49:36.935Z,30.90
2019-05-19T04:52:07.312Z,25.70
2019-05-19T04:54:35.595Z,24.50
2019-05-19T04:57:04.014Z,25.55
2019-05-19T05:02:01.181Z,23.45
2019-05-19T05:04:29.747Z,22.77
2019-05-19T05:06:58.464Z,23.38
2019-05-19T05:09:26.935Z,22.50
2019-05-19T05:11:55.525Z,22.80
2019-05-19T05:14:23.626Z,23.10
2019-05-19T05:16:51.731Z,22.52
2019-05-19T05:21:48.390Z,22.02
2019-05-19T05:24:17.019Z,20.70
2019-05-19T05:26:45.223Z,21.82
2019-05-19T05:29:13.833Z,21.80
2019-05-19T05:31:42.053Z,22.50
2019-05-19T05:34:10.511Z,21.17
2019-05-19T05:36:39.588Z,22.70
2019-05-19T05:41:36.163Z,22.13
2019-05-19T05:44:04.662Z,23.02
2019-05-19T05:46:33.102Z,21.57
2019-05-19T05:49:01.333Z,22.10
2019-05-19T05:51:29.405Z,21.95
2019-05-19T05:53:58.337Z,21.45
2019-05-19T05:56:26.868Z,22.30
2019-05-19T06:01:24.277Z,21.35
2019-05-19T06:03:52.488Z,21.70
2019-05-19T06:06:20.940Z,21.60
2019-05-19T06:08:49.068Z,21.27
2019-05-19T06:11:17.660Z,21.33
2019-05-19T06:13:49.284Z,21.82
2019-05-19T06:16:16.138Z,20.57
2019-05-19T06:21:12.851Z,19.50
2019-05-19T06:23:41.432Z,19.93
2019-05-19T06:28:39.755Z,19.67
2019-05-19T06:31:08.009Z,19.42
2019-05-19T06:33:36.713Z,19.32
2019-05-19T06:36:05.613Z,19.53
2019-05-19T06:38:33.748Z,19.40
2019-05-19T06:41:01.896Z,18.25
2019-05-19T06:43:31.089Z,17.70
2019-05-19T06:48:29.285Z,17.60
2019-05-19T06:50:57.639Z,17.25
2019-05-19T06:53:25.733Z,17.50
2019-05-19T06:55:54.267Z,19.17
2019-05-19T06:58:24.124Z,18.77
2019-05-19T07:00:54.581Z,20.20
2019-05-19T07:03:22.552Z,19.42
2019-05-19T07:08:19.323Z,18.90
2019-05-19T07:10:48.140Z,18.87
2019-05-19T07:13:16.781Z,19.80
2019-05-19T07:15:44.816Z,19.07
2019-05-19T07:20:51.119Z,18.92
2019-05-19T07:23:27.763Z,17.92
2019-05-19T07:28:19.188Z,17.35
2019-05-19T07:30:47.219Z,16.65
2019-05-19T07:33:16.973Z,17.23
2019-05-19T07:35:45.753Z,16.70
2019-05-19T07:40:42.049Z,16.20
2019-05-19T07:43:10.798Z,16.20
2019-05-19T07:45:40.809Z,15.65
2019-05-19T07:48:08.909Z,15.05
2019-05-19T07:50:38.168Z,14.65
2019-05-19T07:53:06.459Z,16.40
2019-05-19T07:55:35.124Z,16.20
2019-05-19T08:00:31.537Z,15.20
2019-05-19T08:02:59.662Z,14.70
2019-05-19T08:07:56.476Z,14.87
2019-05-19T08:10:25.646Z,13.10
2019-05-19T08:12:53.815Z,14.00
2019-05-19T08:15:22.136Z,13.65
2019-05-19T08:17:50.557Z,12.70
2019-05-19T08:20:19.182Z,12.70
2019-05-19T08:22:50.786Z,12.75
2019-05-19T08:27:47.860Z,12.00
2019-05-19T08:30:15.986Z,11.50
2019-05-19T08:32:44.417Z,12.15
2019-05-19T08:35:12.455Z,11.85
2019-05-19T08:37:41.269Z,11.40
2019-05-19T08:40:09.716Z,11.53
2019-05-19T08:42:38.709Z,11.30
2019-05-19T08:47:36.704Z,10.95
2019-05-19T08:50:05.462Z,10.50
2019-05-19T08:52:33.646Z,11.20
2019-05-19T08:55:02.153Z,10.25
2019-05-19T09:00:00.692Z,10.75
2019-05-19T09:02:29.769Z,9.98
2019-05-19T09:07:25.882Z,10.00
2019-05-19T09:09:54.140Z,10.10
2019-05-19T09:12:22.842Z,10.50
2019-05-19T09:14:50.892Z,9.70
2019-05-19T09:17:19.450Z,9.83
2019-05-19T09:19:47.835Z,9.20
2019-05-19T09:22:15.866Z,9.57
2019-05-19T09:27:12.476Z,9.40
2019-05-19T09:29:42.408Z,8.45
2019-05-19T09:32:10.463Z,8.65
2019-05-19T09:34:40.244Z,8.03
2019-05-19T09:37:08.530Z,8.50
2019-05-19T09:39:40.054Z,8.58
2019-05-19T09:42:08.192Z,8.08
2019-05-19T09:47:04.855Z,8.10
2019-05-19T09:49:33.266Z,7.40
2019-05-19T09:52:02.373Z,7.30
2019-05-19T09:54:44.256Z,7.30
2019-05-19T09:59:30.080Z,6.90
2019-05-19T10:01:58.860Z,6.65
2019-05-19T10:04:27.168Z,6.78
2019-05-19T10:06:55.661Z,6.40
2019-05-19T10:09:49.141Z,6.30
2019-05-19T10:12:17.420Z,6.35
2019-05-19T10:17:14.934Z,6.83
2019-05-19T10:19:43.128Z,6.50
2019-05-19T10:22:11.817Z,6.70
2019-05-19T10:24:40.465Z,6.53
2019-05-19T10:27:08.473Z,6.20
2019-05-19T10:32:04.984Z,6.37
2019-05-19T10:34:33.065Z,6.60
2019-05-19T10:37:01.202Z,6.05
2019-05-19T10:39:29.656Z,5.92
2019-05-19T10:41:57.936Z,6.17
2019-05-19T10:44:27.014Z,6.50
2019-05-19T10:46:55.466Z,6.12
2019-05-19T10:51:51.973Z,6.40
2019-05-19T10:54:21.970Z,5.80
2019-05-19T10:56:50.126Z,6.28
2019-05-19T10:59:18.941Z,5.70
2019-05-19T11:01:47.103Z,6.05
2019-05-19T11:04:15.595Z,5.83
2019-05-19T11:06:44.326Z,6.50
2019-05-19T11:11:43.169Z,5.80
2019-05-19T11:14:11.327Z,5.80
2019-05-19T11:16:39.790Z,5.90
2019-05-19T11:19:11.450Z,5.70
2019-05-19T11:24:08.521Z,5.90
2019-05-19T11:26:37.196Z,5.70
2019-05-19T11:31:33.974Z,5.70
2019-05-19T11:34:02.289Z,6.10
2019-05-19T11:36:30.509Z,5.70
2019-05-19T11:38:59.467Z,6.28
2019-05-19T11:41:28.122Z,5.83
2019-05-19T11:43:56.639Z,5.85
2019-05-19T11:46:25.088Z,6.20
2019-05-19T11:51:21.870Z,6.00
2019-05-19T11:53:49.898Z,5.97
2019-05-19T11:58:46.880Z,6.00
2019-05-19T12:01:15.989Z,5.50
2019-05-19T12:03:45.604Z,5.50
2019-05-19T12:06:14.176Z,5.50
2019-05-19T12:08:42.417Z,5.60
2019-05-19T12:11:10.535Z,5.40
2019-05-19T12:13:39.092Z,5.50
2019-05-19T12:18:36.604Z,5.60
2019-05-19T12:21:05.066Z,5.30
2019-05-19T12:23:33.303Z,6.20
2019-05-19T12:26:01.477Z,5.70
2019-05-19T12:28:30.226Z,5.70
2019-05-19T12:30:58.713Z,5.70
2019-05-19T12:33:26.928Z,5.97
2019-05-19T12:35:55.887Z,5.20
2019-05-19T12:38:24.135Z,5.17
2019-05-19T12:40:52.577Z,5.25
2019-05-19T12:45:50.766Z,5.70
2019-05-19T12:48:20.859Z,7.70
2019-05-19T12:50:48.872Z,5.53
2019-05-19T12:53:17.334Z,5.28
2019-05-19T12:55:45.939Z,5.35
2019-05-19T12:58:14.260Z,5.80
2019-05-19T13:00:42.676Z,5.58
2019-05-19T13:05:39.224Z,5.50
2019-05-19T13:08:07.670Z,5.70
2019-05-19T13:10:36.097Z,4.90
2019-05-19T13:13:04.647Z,4.70
2019-05-19T13:18:01.951Z,4.80
2019-05-19T13:20:30.217Z,4.95
2019-05-19T13:22:58.901Z,7.90
2019-05-19T13:25:26.993Z,5.60
2019-05-19T13:27:55.265Z,5.10
2019-05-19T13:30:23.542Z,4.70
2019-05-19T13:32:51.984Z,5.00
2019-05-19T13:37:49.395Z,4.70
2019-05-19T13:40:17.695Z,4.90
2019-05-19T13:42:46.029Z,5.40
2019-05-19T13:45:14.530Z,4.80
2019-05-19T13:47:43.096Z,4.85
2019-05-19T13:50:11.978Z,6.28
2019-05-19T13:52:40.359Z,5.90
2019-05-19T13:57:39.397Z,4.60
2019-05-19T14:00:07.866Z,5.10
2019-05-19T14:05:04.633Z,5.60
2019-05-19T14:07:32.740Z,5.57
2019-05-19T14:10:00.815Z,6.12
2019-05-19T14:12:29.229Z,5.83
2019-05-19T14:14:57.718Z,5.83
2019-05-19T14:17:26.247Z,5.30
2019-05-19T14:19:54.257Z,5.20
2019-05-19T14:24:50.432Z,4.40
2019-05-19T14:27:29.198Z,4.55
2019-05-19T14:29:48.198Z,4.70
2019-05-19T14:32:16.668Z,4.60
2019-05-19T14:34:44.989Z,4.60
2019-05-19T14:37:13.097Z,4.60
2019-05-19T14:39:41.898Z,4.50
2019-05-19T14:44:41.978Z,4.60
2019-05-19T14:47:10.161Z,6.10
2019-05-19T14:49:38.575Z,15.20
2019-05-19T14:52:08.341Z,6.10
2019-05-19T14:54:36.664Z,6.25
2019-05-19T14:57:05.311Z,4.90
2019-05-19T14:59:34.090Z,4.40
2019-05-19T15:04:49.048Z,5.12
2019-05-19T15:07:19.262Z,5.10
2019-05-19T15:09:47.549Z,4.97
2019-05-19T15:12:16.580Z,4.70
2019-05-19T15:14:44.655Z,5.10
2019-05-19T15:17:12.767Z,4.70
2019-05-19T15:22:09.682Z,5.30
2019-05-19T15:24:38.251Z,4.85
2019-05-19T15:27:07.001Z,5.30
2019-05-19T15:29:35.125Z,4.80
2019-05-19T15:32:03.278Z,5.08
2019-05-19T15:37:00.187Z,8.40
2019-05-19T15:39:28.248Z,6.05
2019-05-19T15:41:56.522Z,6.37
2019-05-19T15:44:24.803Z,6.00
2019-05-19T15:46:54.234Z,5.70
2019-05-19T15:49:23.053Z,5.73
2019-05-19T15:52:01.523Z,5.55
2019-05-19T15:56:50.954Z,5.08
2019-05-19T15:59:19.546Z,4.90
2019-05-19T16:01:47.594Z,5.40
2019-05-19T16:04:16.241Z,4.83
2019-05-19T16:06:44.343Z,5.20
2019-05-19T16:09:13.643Z,4.90
2019-05-19T16:11:42.123Z,4.47
2019-05-19T16:14:11.149Z,4.85
2019-05-19T16:16:39.467Z,4.70
2019-05-19T16:19:08.021Z,10.82
2019-05-19T16:21:36.119Z,5.20
2019-05-19T16:24:04.839Z,5.15
2019-05-19T16:29:01.191Z,4.97
2019-05-19T16:31:29.550Z,5.30
2019-05-19T16:36:26.187Z,5.70
2019-05-19T16:38:54.248Z,5.35
2019-05-19T16:41:22.345Z,5.10
2019-05-19T16:43:50.656Z,5.30
2019-05-19T16:46:19.226Z,5.45
2019-05-19T16:48:47.325Z,5.40
2019-05-19T16:51:15.412Z,4.90
2019-05-19T16:56:13.855Z,8.63
2019-05-19T16:58:45.361Z,6.50
2019-05-19T17:01:12.515Z,6.00
2019-05-19T17:03:40.966Z,5.70
2019-05-19T17:06:09.504Z,5.70
2019-05-19T17:08:37.557Z,5.78
2019-05-19T17:11:17.622Z,6.08
2019-05-19T17:13:35.693Z,5.92
2019-05-19T17:16:03.729Z,6.20
2019-05-19T17:18:31.853Z,6.00
2019-05-19T17:21:00.164Z,6.20
2019-05-19T17:23:28.818Z,6.10
2019-05-19T17:28:25.371Z,5.62
2019-05-19T17:30:53.509Z,6.00
2019-05-19T17:35:50.021Z,6.17
2019-05-19T17:38:19.862Z,5.97
2019-05-19T17:40:48.272Z,6.22
2019-05-19T17:43:16.429Z,5.90
2019-05-19T17:45:44.877Z,5.30
2019-05-19T17:48:25.765Z,6.10
2019-05-19T17:50:42.784Z,5.87
2019-05-19T17:53:10.890Z,5.53
2019-05-19T17:55:39.389Z,5.20
2019-05-19T17:58:07.524Z,5.50
2019-05-19T18:00:37.325Z,5.33
2019-05-19T18:05:34.433Z,5.05
2019-05-19T18:08:02.591Z,5.40
2019-05-19T18:10:32.197Z,5.65
2019-05-19T18:13:00.367Z,5.75
2019-05-19T18:15:28.420Z,5.70
2019-05-19T18:17:56.872Z,5.53
2019-05-19T18:20:25.490Z,6.00
2019-05-19T18:25:22.552Z,7.30
2019-05-19T18:27:51.303Z,6.10
2019-05-19T18:32:48.005Z,6.08
2019-05-19T18:35:16.103Z,6.30
2019-05-19T18:37:44.208Z,6.70
2019-05-19T18:40:12.566Z,6.47
2019-05-19T18:45:10.852Z,9.10
2019-05-19T18:47:39.374Z,8.38
2019-05-19T18:50:08.210Z,6.40
2019-05-19T18:52:36.770Z,6.35
2019-05-19T18:55:05.036Z,7.50
2019-05-19T18:57:33.639Z,6.45
2019-05-19T19:00:01.710Z,8.40
2019-05-19T19:05:00.550Z,7.85
2019-05-19T19:07:52.461Z,8.63
2019-05-19T19:10:20.892Z,10.40
2019-05-19T19:12:49.451Z,8.58
2019-05-19T19:15:17.888Z,8.48
2019-05-19T19:17:46.342Z,7.90
2019-05-19T19:22:43.274Z,7.73
2019-05-19T19:25:11.793Z,8.50
2019-05-19T19:27:39.945Z,9.00
2019-05-19T19:30:08.935Z,8.90
2019-05-19T19:32:37.368Z,9.00
2019-05-19T19:37:34.332Z,8.50
2019-05-19T19:40:03.193Z,8.30
2019-05-19T19:42:31.980Z,8.50
2019-05-19T19:45:00.306Z,14.28
2019-05-19T19:49:56.811Z,12.67
2019-05-19T19:52:25.299Z,11.22
2019-05-19T19:54:53.779Z,9.85
2019-05-19T19:57:22.867Z,9.70
2019-05-19T19:59:51.173Z,9.53
2019-05-19T20:02:19.428Z,9.60
2019-05-19T20:04:47.758Z,10.20
2019-05-19T20:09:44.175Z,10.38
2019-05-19T20:12:12.239Z,9.80
2019-05-19T20:14:40.547Z,10.90
2019-05-19T20:17:08.579Z,10.60
2019-05-19T20:19:36.934Z,11.53
2019-05-19T20:22:05.214Z,10.70
2019-05-19T20:24:33.581Z,11.20
2019-05-19T20:29:30.318Z,10.80
2019-05-19T20:31:58.373Z,11.57
2019-05-19T20:34:26.697Z,10.23
2019-05-19T20:36:54.796Z,10.30
2019-05-19T20:39:22.886Z,10.93
2019-05-19T20:41:50.940Z,10.55
2019-05-19T20:44:18.992Z,10.63
2019-05-19T20:49:15.780Z,10.40
2019-05-19T20:51:43.981Z,10.90
2019-05-19T20:54:12.291Z,11.00
2019-05-19T20:56:40.397Z,10.70
2019-05-19T20:59:08.468Z,11.10
2019-05-19T21:01:36.789Z,11.50
2019-05-19T21:04:04.840Z,11.30
2019-05-19T21:09:01.263Z,11.33
2019-05-19T21:11:29.305Z,11.20
2019-05-19T21:13:57.901Z,11.15
2019-05-19T21:16:26.406Z,11.25
2019-05-19T21:18:54.780Z,11.40
2019-05-19T21:21:23.264Z,11.20
2019-05-19T21:23:51.895Z,11.50
2019-05-19T21:28:48.159Z,11.60
2019-05-19T21:31:16.737Z,10.80
2019-05-19T21:33:44.997Z,11.35
2019-05-19T21:36:13.541Z,10.93
2019-05-19T21:38:42.562Z,11.80
2019-05-19T21:41:10.964Z,11.97
2019-05-19T21:43:39.339Z,11.68
2019-05-19T21:46:07.492Z,11.60
2019-05-19T21:48:35.948Z,11.85
2019-05-19T21:51:04.180Z,10.72
2019-05-19T21:56:01.103Z,11.83
2019-05-19T21:58:29.499Z,11.83
2019-05-19T22:00:58.218Z,12.75
2019-05-19T22:03:26.463Z,13.20
2019-05-19T22:05:55.180Z,12.58
2019-05-19T22:08:23.451Z,13.40
2019-05-19T22:10:51.579Z,14.63
2019-05-19T22:15:48.820Z,14.90
2019-05-19T22:18:17.074Z,14.30
2019-05-19T22:20:45.670Z,14.60
2019-05-19T22:23:14.450Z,15.30
2019-05-19T22:28:11.652Z,14.28
2019-05-19T22:30:40.276Z,14.33
2019-05-19T22:33:13.237Z,16.43
2019-05-19T22:35:41.388Z,15.25
2019-05-19T22:38:09.819Z,15.53
2019-05-19T22:40:38.308Z,15.33
2019-05-19T22:43:06.576Z,15.43
2019-05-19T22:48:03.123Z,16.30
2019-05-19T22:50:31.633Z,16.80
2019-05-19T22:53:00.228Z,17.53
2019-05-19T22:55:28.525Z,16.50
2019-05-19T23:00:26.325Z,15.90
2019-05-19T23:02:54.542Z,16.47
2019-05-19T23:07:51.399Z,15.20
2019-05-19T23:10:20.023Z,15.68
2019-05-19T23:12:48.393Z,17.73
2019-05-19T23:15:16.973Z,19.32
2019-05-19T23:17:45.146Z,22.40
2019-05-19T23:20:14.958Z,24.55
2019-05-19T23:22:43.689Z,30.40
2019-05-19T23:27:40.076Z,30.60
2019-05-19T23:30:09.279Z,30.87
2019-05-19T23:32:38.049Z,32.23
2019-05-19T23:35:06.760Z,30.95
2019-05-19T23:40:04.318Z,33.60
2019-05-19T23:42:32.505Z,33.00
2019-05-19T23:45:00.707Z,34.08
2019-05-19T23:47:29.214Z,33.63
2019-05-19T23:49:57.555Z,32.20
2019-05-19T23:52:26.124Z,32.83
2019-05-19T23:54:54.342Z,31.52
2019-05-19T23:59:51.539Z,31.62
